Time;durP1;ratioP1;P1;durP2;ratioP2;P2;SDS_P1;SDS_P2;PMS_P1;PMS_P2;Temp;Humidity;BMP_temperature;BMP_pressure;BME280_temperature;BME280_humidity;BME280_pressure;Samples;Min_cycle;Max_cycle;Signal;HPM_P1;HPM_P2
2023/06/02 00:02:22;;;;;;;5.00;2.80;;;;;;;;;;107543;287;42152;-37
2023/06/02 00:04:59;;;;;;;5.00;2.70;;;;;;;;;;107615;286;38797;-37
2023/06/02 00:07:33;;;;;;;4.80;2.60;;;;;;;;;;107509;278;40045;-37
2023/06/02 00:10:08;;;;;;;5.00;2.70;;;;;;;;;;107513;283;43049;-37
2023/06/02 00:12:42;;;;;;;5.10;2.70;;;;;;;;;;107553;286;42169;-38
2023/06/02 00:15:17;;;;;;;5.30;2.90;;;;;;;;;;107571;285;38549;-37
2023/06/02 00:17:54;;;;;;;5.20;2.60;;;;;;;;;;107490;287;39503;-38
2023/06/02 00:20:31;;;;;;;5.60;2.80;;;;;;;;;;107513;286;44104;-37
2023/06/02 00:23:08;;;;;;;4.90;2.50;;;;;;;;;;107548;283;43327;-38
2023/06/02 00:25:46;;;;;;;5.70;2.80;;;;;;;;;;107558;286;38795;-38
2023/06/02 00:28:23;;;;;;;4.90;2.60;;;;;;;;;;107502;287;40703;-38
2023/06/02 00:31:00;;;;;;;4.60;2.70;;;;;;;;;;107543;283;42863;-38
2023/06/02 00:33:37;;;;;;;4.80;2.50;;;;;;;;;;107533;286;42222;-38
2023/06/02 00:36:11;;;;;;;5.00;2.60;;;;;;;;;;107595;286;39476;-38
2023/06/02 00:38:45;;;;;;;5.50;2.80;;;;;;;;;;107534;286;40715;-38
2023/06/02 00:41:20;;;;;;;5.50;3.00;;;;;;;;;;107531;283;42934;-38
2023/06/02 00:43:54;;;;;;;5.30;2.70;;;;;;;;;;107534;286;42195;-38
2023/06/02 00:46:30;;;;;;;4.80;2.50;;;;;;;;;;107558;286;40075;-38
2023/06/02 00:49:06;;;;;;;5.20;2.80;;;;;;;;;;107544;286;39686;-38
2023/06/02 00:51:40;;;;;;;5.00;2.90;;;;;;;;;;107560;283;42896;-38
2023/06/02 00:54:16;;;;;;;5.20;2.60;;;;;;;;;;107558;286;43299;-38
2023/06/02 00:56:51;;;;;;;5.90;2.70;;;;;;;;;;107387;285;39912;-38
2023/06/02 00:59:25;;;;;;;5.20;2.60;;;;;;;;;;107413;283;175393;-38
2023/06/02 01:02:02;;;;;;;5.60;2.60;;;;;;;;;;107536;286;42912;-39
2023/06/02 01:04:40;;;;;;;6.10;2.70;;;;;;;;;;107559;286;42105;-38
2023/06/02 01:07:23;;;;;;;5.00;2.60;;;;;;;;;;106901;286;892342;-37
2023/06/02 01:09:59;;;;;;;5.30;2.70;;;;;;;;;;107513;287;45441;-38
2023/06/02 01:12:34;;;;;;;5.10;2.60;;;;;;;;;;107560;278;42927;-38
2023/06/02 01:15:10;;;;;;;5.00;2.70;;;;;;;;;;107561;286;42161;-38
2023/06/02 01:17:45;;;;;;;5.00;2.70;;;;;;;;;;106955;285;595033;-38
2023/06/02 01:20:23;;;;;;;5.10;2.60;;;;;;;;;;107560;283;39807;-37
2023/06/02 01:23:05;;;;;;;6.20;3.20;;;;;;;;;;107578;286;43093;-38
2023/06/02 01:25:39;;;;;;;4.80;2.60;;;;;;;;;;107590;286;42155;-38
2023/06/02 01:28:15;;;;;;;4.80;2.60;;;;;;;;;;107537;284;38776;-37
2023/06/02 01:30:50;;;;;;;5.30;2.70;;;;;;;;;;107556;286;39911;-37
2023/06/02 01:33:29;;;;;;;4.70;2.60;;;;;;;;;;107582;284;42915;-38
2023/06/02 01:36:03;;;;;;;4.70;2.60;;;;;;;;;;107550;283;44245;-37
2023/06/02 01:38:38;;;;;;;5.60;3.00;;;;;;;;;;107507;287;39832;-38
2023/06/02 01:41:15;;;;;;;5.70;2.80;;;;;;;;;;107524;283;40903;-38
2023/06/02 01:43:51;;;;;;;5.70;2.60;;;;;;;;;;107535;286;42914;-38
2023/06/02 01:46:27;;;;;;;5.20;3.00;;;;;;;;;;107541;286;42146;-38
2023/06/02 01:49:01;;;;;;;5.10;2.80;;;;;;;;;;107558;286;38916;-38
2023/06/02 01:51:36;;;;;;;4.70;2.50;;;;;;;;;;107535;283;39445;-38
2023/06/02 01:54:12;;;;;;;4.40;2.60;;;;;;;;;;107553;286;43046;-38
2023/06/02 01:56:47;;;;;;;4.80;2.50;;;;;;;;;;107525;283;42270;-38
2023/06/02 01:59:23;;;;;;;5.30;2.80;;;;;;;;;;107512;283;38611;-38
2023/06/02 02:01:59;;;;;;;4.70;2.70;;;;;;;;;;107542;283;39703;-38
2023/06/02 02:04:34;;;;;;;5.30;2.70;;;;;;;;;;107598;286;43123;-38
2023/06/02 02:07:11;;;;;;;5.50;2.70;;;;;;;;;;107536;283;43322;-38
2023/06/02 02:09:47;;;;;;;5.50;2.80;;;;;;;;;;107503;286;38631;-38
2023/06/02 02:12:22;;;;;;;4.40;2.40;;;;;;;;;;107444;286;175078;-38
2023/06/02 02:15:02;;;;;;;5.40;2.70;;;;;;;;;;107531;287;43033;-38
2023/06/02 02:17:45;;;;;;;5.30;2.40;;;;;;;;;;107426;286;175509;-38
2023/06/02 02:20:22;;;;;;;4.80;2.50;;;;;;;;;;107524;283;38573;-38
2023/06/02 02:22:58;;;;;;;4.80;2.50;;;;;;;;;;107546;283;39700;-37
2023/06/02 02:25:32;;;;;;;4.60;2.80;;;;;;;;;;107533;283;44173;-37
2023/06/02 02:28:09;;;;;;;4.70;2.40;;;;;;;;;;107548;287;43310;-37
2023/06/02 02:30:43;;;;;;;5.70;2.80;;;;;;;;;;107512;286;38550;-37
2023/06/02 02:33:20;;;;;;;5.10;2.70;;;;;;;;;;107541;283;40018;-37
2023/06/02 02:35:54;;;;;;;4.40;2.50;;;;;;;;;;107549;286;42891;-38
2023/06/02 02:38:31;;;;;;;4.10;2.30;;;;;;;;;;107547;286;42534;-38
2023/06/02 02:41:05;;;;;;;5.10;2.50;;;;;;;;;;107531;286;38829;-38
2023/06/02 02:43:42;;;;;;;5.40;2.50;;;;;;;;;;107576;283;39495;-37
2023/06/02 02:46:19;;;;;;;4.90;2.70;;;;;;;;;;107549;286;42967;-37
2023/06/02 02:48:56;;;;;;;4.80;2.60;;;;;;;;;;107567;283;42246;-38
2023/06/02 02:51:36;;;;;;;5.10;2.60;;;;;;;;;;107520;286;38578;-37
2023/06/02 02:54:12;;;;;;;4.80;2.40;;;;;;;;;;107545;283;39854;-37
2023/06/02 02:56:49;;;;;;;4.70;2.50;;;;;;;;;;107528;286;43009;-38
2023/06/02 02:59:25;;;;;;;5.00;2.50;;;;;;;;;;107549;283;42284;-37
2023/06/02 03:02:00;;;;;;;4.70;2.60;;;;;;;;;;107511;286;38838;-38
2023/06/02 03:04:36;;;;;;;5.20;2.70;;;;;;;;;;107565;287;39981;-37
2023/06/02 03:07:10;;;;;;;4.90;2.20;;;;;;;;;;107544;286;42906;-37
2023/06/02 03:09:46;;;;;;;4.50;2.40;;;;;;;;;;107378;287;42169;-38
2023/06/02 03:12:20;;;;;;;5.20;2.70;;;;;;;;;;107527;283;38915;-37
2023/06/02 03:14:55;;;;;;;4.90;2.80;;;;;;;;;;107546;286;39684;-37
2023/06/02 03:17:30;;;;;;;5.20;2.60;;;;;;;;;;107553;283;42915;-38
2023/06/02 03:20:07;;;;;;;4.90;2.60;;;;;;;;;;107547;287;42443;-37
2023/06/02 03:22:44;;;;;;;5.30;2.80;;;;;;;;;;107528;287;45516;-37
2023/06/02 03:25:20;;;;;;;5.50;2.70;;;;;;;;;;107542;286;40093;-38
2023/06/02 03:27:55;;;;;;;4.80;2.50;;;;;;;;;;107563;286;42871;-38
2023/06/02 03:30:30;;;;;;;4.80;2.60;;;;;;;;;;107550;287;42673;-38
2023/06/02 03:33:06;;;;;;;4.30;2.60;;;;;;;;;;107549;286;40026;-38
2023/06/02 03:35:41;;;;;;;5.50;2.70;;;;;;;;;;107574;286;39738;-37
2023/06/02 03:38:15;;;;;;;5.30;2.70;;;;;;;;;;107521;278;42949;-37
2023/06/02 03:40:49;;;;;;;5.20;2.70;;;;;;;;;;107528;286;42125;-37
2023/06/02 03:43:24;;;;;;;4.90;2.70;;;;;;;;;;107546;286;45314;-37
2023/06/02 03:45:59;;;;;;;5.00;2.70;;;;;;;;;;107539;283;39863;-38
2023/06/02 03:48:35;;;;;;;5.20;2.60;;;;;;;;;;107532;286;43242;-38
2023/06/02 03:51:10;;;;;;;5.10;2.70;;;;;;;;;;107523;286;42277;-37
2023/06/02 03:53:49;;;;;;;4.50;2.60;;;;;;;;;;107550;286;44716;-38
2023/06/02 03:56:25;;;;;;;5.20;2.80;;;;;;;;;;107535;286;39776;-37
2023/06/02 03:59:01;;;;;;;4.90;2.90;;;;;;;;;;107572;286;42899;-38
2023/06/02 04:01:36;;;;;;;5.40;2.90;;;;;;;;;;107515;286;41911;-37
2023/06/02 04:04:13;;;;;;;5.50;2.70;;;;;;;;;;107552;283;38839;-38
2023/06/02 04:06:48;;;;;;;4.80;2.80;;;;;;;;;;107566;283;39993;-38
2023/06/02 04:09:26;;;;;;;4.50;2.90;;;;;;;;;;107536;283;43314;-38
2023/06/02 04:12:00;;;;;;;5.50;2.60;;;;;;;;;;107530;286;42163;-38
2023/06/02 04:14:36;;;;;;;5.20;2.90;;;;;;;;;;107550;286;38845;-38
2023/06/02 04:17:10;;;;;;;4.60;2.80;;;;;;;;;;107564;286;40877;-38
2023/06/02 04:19:46;;;;;;;4.90;2.80;;;;;;;;;;107544;283;44070;-37
2023/06/02 04:22:20;;;;;;;6.00;3.00;;;;;;;;;;107504;286;43445;-38
2023/06/02 04:24:55;;;;;;;5.00;2.70;;;;;;;;;;107546;283;40123;-37
2023/06/02 04:27:30;;;;;;;5.50;2.70;;;;;;;;;;107541;283;39460;-38
2023/06/02 04:30:08;;;;;;;5.10;2.90;;;;;;;;;;107528;286;42919;-37
2023/06/02 04:32:41;;;;;;;5.70;3.20;;;;;;;;;;107533;283;42293;-37
2023/06/02 04:35:16;;;;;;;6.00;2.80;;;;;;;;;;107579;283;39091;-38
2023/06/02 04:37:52;;;;;;;5.00;2.90;;;;;;;;;;107545;283;39741;-38
2023/06/02 04:40:28;;;;;;;4.90;2.90;;;;;;;;;;107531;283;42673;-38
2023/06/02 04:43:02;;;;;;;5.40;2.90;;;;;;;;;;107509;283;42174;-38
2023/06/02 04:45:43;;;;;;;5.50;3.00;;;;;;;;;;107542;286;39096;-38
2023/06/02 04:48:17;;;;;;;5.60;2.80;;;;;;;;;;107552;283;39720;-37
2023/06/02 04:50:51;;;;;;;5.40;2.80;;;;;;;;;;107560;283;43052;-37
2023/06/02 04:53:27;;;;;;;5.20;3.10;;;;;;;;;;107481;286;42174;-38
2023/06/02 04:56:02;;;;;;;5.00;2.90;;;;;;;;;;107559;287;39127;-37
2023/06/02 04:58:40;;;;;;;5.20;3.20;;;;;;;;;;107551;287;39708;-38
2023/06/02 05:01:14;;;;;;;5.00;3.10;;;;;;;;;;107556;283;43114;-38
2023/06/02 05:03:53;;;;;;;5.90;3.00;;;;;;;;;;107348;285;42125;-37
2023/06/02 05:06:30;;;;;;;5.30;3.00;;;;;;;;;;107526;286;39036;-38
2023/06/02 05:09:04;;;;;;;5.60;3.20;;;;;;;;;;107541;286;39749;-38
2023/06/02 05:11:38;;;;;;;5.40;3.00;;;;;;;;;;107545;283;42895;-37
2023/06/02 05:14:11;;;;;;;4.90;2.80;;;;;;;;;;107500;286;42238;-37
2023/06/02 05:16:48;;;;;;;4.80;3.00;;;;;;;;;;107525;283;38729;-38
2023/06/02 05:19:23;;;;;;;4.40;2.60;;;;;;;;;;107603;283;39737;-37
2023/06/02 05:22:03;;;;;;;5.20;3.30;;;;;;;;;;107587;287;42911;-38
2023/06/02 05:24:37;;;;;;;5.70;2.80;;;;;;;;;;107486;286;42437;-38
2023/06/02 05:27:11;;;;;;;5.90;3.10;;;;;;;;;;107540;286;38806;-38
2023/06/02 05:29:45;;;;;;;5.30;3.00;;;;;;;;;;107539;283;39723;-38
2023/06/02 05:32:24;;;;;;;5.00;3.00;;;;;;;;;;107560;286;43356;-37
2023/06/02 05:34:59;;;;;;;5.90;3.20;;;;;;;;;;107522;287;42273;-38
2023/06/02 05:37:33;;;;;;;5.90;3.00;;;;;;;;;;107551;286;38686;-38
2023/06/02 05:40:08;;;;;;;6.40;3.20;;;;;;;;;;107568;286;39756;-37
2023/06/02 05:42:43;;;;;;;6.40;3.30;;;;;;;;;;107539;286;42869;-38
2023/06/02 05:45:18;;;;;;;5.90;3.30;;;;;;;;;;107507;286;42214;-38
2023/06/02 05:47:53;;;;;;;5.60;3.20;;;;;;;;;;107564;286;38796;-38
2023/06/02 05:50:27;;;;;;;6.20;3.50;;;;;;;;;;107563;286;40051;-38
2023/06/02 05:53:05;;;;;;;5.70;3.10;;;;;;;;;;107490;284;43024;-38
2023/06/02 05:55:40;;;;;;;5.90;3.20;;;;;;;;;;107496;286;42313;-38
2023/06/02 05:58:15;;;;;;;5.70;3.10;;;;;;;;;;107560;287;38761;-38
2023/06/02 06:00:49;;;;;;;6.30;3.20;;;;;;;;;;107546;284;39543;-37
2023/06/02 06:03:23;;;;;;;6.10;3.20;;;;;;;;;;107542;287;42959;-38
2023/06/02 06:05:56;;;;;;;6.70;3.20;;;;;;;;;;107521;287;43269;-37
2023/06/02 06:08:30;;;;;;;6.10;2.90;;;;;;;;;;107531;286;38798;-38
2023/06/02 06:11:03;;;;;;;5.80;3.00;;;;;;;;;;107556;286;39449;-38
2023/06/02 06:13:37;;;;;;;6.10;3.10;;;;;;;;;;107539;286;44144;-38
2023/06/02 06:16:12;;;;;;;7.00;3.30;;;;;;;;;;107494;284;42133;-38
2023/06/02 06:18:45;;;;;;;5.90;2.90;;;;;;;;;;107545;284;38930;-37
2023/06/02 06:21:19;;;;;;;6.50;3.30;;;;;;;;;;107551;283;39707;-38
2023/06/02 06:23:53;;;;;;;7.20;3.30;;;;;;;;;;107557;287;43062;-38
2023/06/02 06:26:29;;;;;;;5.60;3.00;;;;;;;;;;107341;285;42333;-38
2023/06/02 06:29:06;;;;;;;5.50;3.00;;;;;;;;;;107530;286;38899;-38
2023/06/02 06:31:41;;;;;;;6.30;3.10;;;;;;;;;;107550;283;39689;-38
2023/06/02 06:34:18;;;;;;;5.80;2.90;;;;;;;;;;107532;283;42902;-38
2023/06/02 06:36:54;;;;;;;5.70;3.20;;;;;;;;;;107503;286;47863;-38
2023/06/02 06:39:27;;;;;;;5.50;3.00;;;;;;;;;;107542;286;39959;-38
2023/06/02 06:42:00;;;;;;;5.40;2.90;;;;;;;;;;107559;283;39727;-38
2023/06/02 06:44:34;;;;;;;5.70;2.90;;;;;;;;;;107532;284;42956;-38
2023/06/02 06:47:09;;;;;;;5.20;2.90;;;;;;;;;;107485;286;47873;-38
2023/06/02 06:49:43;;;;;;;5.80;3.20;;;;;;;;;;107539;286;38832;-38
2023/06/02 06:52:16;;;;;;;7.00;3.10;;;;;;;;;;107538;286;39832;-38
2023/06/02 06:54:50;;;;;;;5.00;2.90;;;;;;;;;;107562;287;42987;-38
2023/06/02 06:57:24;;;;;;;5.50;2.80;;;;;;;;;;107528;283;47769;-38
2023/06/02 06:59:58;;;;;;;5.50;2.90;;;;;;;;;;107562;286;38955;-38
2023/06/02 07:02:33;;;;;;;5.20;2.70;;;;;;;;;;107560;283;40763;-38
2023/06/02 07:05:10;;;;;;;5.00;2.60;;;;;;;;;;107526;286;43056;-38
2023/06/02 07:07:46;;;;;;;5.30;2.70;;;;;;;;;;107627;283;48847;-37
2023/06/02 07:10:23;;;;;;;4.70;2.80;;;;;;;;;;107587;283;38863;-38
2023/06/02 07:13:15;;;;;;;6.20;2.80;;;;;;;;;;107520;286;41064;-39
2023/06/02 07:15:49;;;;;;;5.00;2.80;;;;;;;;;;107141;289;43282;-38
2023/06/02 07:18:23;;;;;;;5.40;2.50;;;;;;;;;;107262;289;41904;-37
2023/06/02 07:20:57;;;;;;;5.20;3.20;;;;;;;;;;107267;289;38901;-36
2023/06/02 07:23:30;;;;;;;5.80;3.20;;;;;;;;;;107278;281;39693;-36
2023/06/02 07:26:04;;;;;;;6.80;3.20;;;;;;;;;;107195;290;44086;-36
2023/06/02 07:28:40;;;;;;;6.80;3.20;;;;;;;;;;107258;289;42180;-36
2023/06/02 07:31:17;;;;;;;6.00;3.10;;;;;;;;;;107246;288;38807;-36
2023/06/02 07:33:53;;;;;;;4.90;3.00;;;;;;;;;;107295;289;39815;-37
2023/06/02 07:36:27;;;;;;;5.30;3.10;;;;;;;;;;107249;289;43120;-36
2023/06/02 07:39:00;;;;;;;5.50;3.20;;;;;;;;;;107283;288;42187;-37
2023/06/02 07:41:34;;;;;;;5.90;2.90;;;;;;;;;;107301;289;38781;-37
2023/06/02 07:44:10;;;;;;;6.30;3.20;;;;;;;;;;107284;289;41005;-37
2023/06/02 07:46:45;;;;;;;8.00;3.30;;;;;;;;;;107277;289;43042;-37
2023/06/02 07:49:19;;;;;;;5.40;3.10;;;;;;;;;;107277;287;43321;-36
2023/06/02 07:51:55;;;;;;;6.00;3.30;;;;;;;;;;107268;289;40334;-35
2023/06/02 07:54:30;;;;;;;6.20;3.20;;;;;;;;;;107287;289;39713;-35
2023/06/02 07:57:07;;;;;;;6.10;3.00;;;;;;;;;;107243;287;42801;-35
2023/06/02 07:59:41;;;;;;;5.20;2.90;;;;;;;;;;107303;288;42237;-34
2023/06/02 08:02:16;;;;;;;7.00;3.40;;;;;;;;;;107294;281;38555;-37
2023/06/02 08:04:49;;;;;;;7.00;3.30;;;;;;;;;;107305;286;39723;-37
2023/06/02 08:07:28;;;;;;;5.80;2.90;;;;;;;;;;106595;289;894347;-37
2023/06/02 08:10:03;;;;;;;6.30;3.00;;;;;;;;;;107269;287;42258;-36
2023/06/02 08:12:38;;;;;;;6.70;2.90;;;;;;;;;;107292;288;38908;-38
2023/06/02 08:15:12;;;;;;;5.80;3.10;;;;;;;;;;107283;289;39725;-38
2023/06/02 08:17:48;;;;;;;5.80;2.70;;;;;;;;;;107232;287;42923;-35
2023/06/02 08:20:23;;;;;;;5.80;2.70;;;;;;;;;;107261;289;42156;-35
2023/06/02 08:22:57;;;;;;;6.80;2.90;;;;;;;;;;107285;288;38755;-36
2023/06/02 08:25:30;;;;;;;5.20;2.50;;;;;;;;;;107316;288;39658;-34
2023/06/02 08:28:05;;;;;;;5.10;2.60;;;;;;;;;;107264;289;42831;-34
2023/06/02 08:30:42;;;;;;;5.90;2.70;;;;;;;;;;107256;287;42385;-34
2023/06/02 08:33:16;;;;;;;6.60;2.80;;;;;;;;;;107292;289;41017;-34
2023/06/02 08:35:50;;;;;;;6.30;2.70;;;;;;;;;;107284;281;40796;-34
2023/06/02 08:38:29;;;;;;;4.90;2.50;;;;;;;;;;107243;289;44089;-36
2023/06/02 08:41:06;;;;;;;6.50;2.70;;;;;;;;;;107267;287;42194;-36
2023/06/02 08:43:41;;;;;;;5.00;2.40;;;;;;;;;;107286;288;38960;-38
2023/06/02 08:46:17;;;;;;;6.20;2.60;;;;;;;;;;107304;287;39875;-38
2023/06/02 08:48:55;;;;;;;5.70;2.70;;;;;;;;;;107244;289;43077;-38
2023/06/02 08:51:32;;;;;;;5.60;2.40;;;;;;;;;;107300;288;43638;-33
2023/06/02 08:54:09;;;;;;;6.50;2.60;;;;;;;;;;107283;287;38960;-34
2023/06/02 08:56:43;;;;;;;5.30;2.50;;;;;;;;;;107303;288;39781;-34
2023/06/02 08:59:19;;;;;;;6.10;2.50;;;;;;;;;;107284;287;42911;-35
2023/06/02 09:01:53;;;;;;;5.30;2.60;;;;;;;;;;107295;289;42181;-36
2023/06/02 09:04:27;;;;;;;6.20;2.70;;;;;;;;;;107282;287;39936;-36
2023/06/02 09:07:22;;;;;;;5.90;2.60;;;;;;;;;;107200;287;175423;-36
2023/06/02 09:09:57;;;;;;;4.90;2.30;;;;;;;;;;107216;289;43555;-36
2023/06/02 09:12:31;;;;;;;5.40;2.50;;;;;;;;;;107265;289;42205;-35
2023/06/02 09:15:15;;;;;;;5.10;2.40;;;;;;;;;;107264;289;38749;-37
2023/06/02 09:17:49;;;;;;;5.20;2.20;;;;;;;;;;106868;289;500682;-36
2023/06/02 09:20:38;;;;;;;5.70;2.30;;;;;;;;;;107234;289;48919;-36
2023/06/02 09:23:14;;;;;;;5.90;2.70;;;;;;;;;;107247;289;42257;-36
2023/06/02 09:25:49;;;;;;;5.50;2.40;;;;;;;;;;107298;285;38770;-36
2023/06/02 09:28:25;;;;;;;6.00;2.50;;;;;;;;;;107218;289;39747;-36
2023/06/02 09:31:11;;;;;;;5.50;2.50;;;;;;;;;;107237;287;42943;-36
2023/06/02 09:34:00;;;;;;;5.60;2.50;;;;;;;;;;107269;287;42271;-36
2023/06/02 09:36:33;;;;;;;5.60;2.50;;;;;;;;;;107262;289;39915;-36
2023/06/02 09:39:08;;;;;;;4.90;2.50;;;;;;;;;;107257;286;40859;-36
2023/06/02 09:41:42;;;;;;;5.60;2.40;;;;;;;;;;107312;289;42897;-37
2023/06/02 09:44:19;;;;;;;5.50;2.70;;;;;;;;;;107296;287;42213;-36
2023/06/02 09:46:53;;;;;;;5.50;2.70;;;;;;;;;;107270;289;38861;-36
2023/06/02 09:49:28;;;;;;;6.10;2.80;;;;;;;;;;107230;287;39723;-36
2023/06/02 09:52:15;;;;;;;5.10;2.70;;;;;;;;;;107276;287;42907;-36
2023/06/02 09:54:51;;;;;;;5.80;2.70;;;;;;;;;;107283;289;42153;-36
2023/06/02 09:57:25;;;;;;;8.00;2.60;;;;;;;;;;107269;289;38748;-36
2023/06/02 10:00:02;;;;;;;6.60;2.80;;;;;;;;;;107240;287;40756;-36
2023/06/02 10:02:36;;;;;;;5.20;2.40;;;;;;;;;;107242;288;42919;-36
2023/06/02 10:05:12;;;;;;;5.30;2.50;;;;;;;;;;107285;287;44351;-36
2023/06/02 10:08:08;;;;;;;5.20;2.40;;;;;;;;;;107285;287;38799;-35
2023/06/02 10:10:59;;;;;;;6.80;2.60;;;;;;;;;;107206;285;39711;-36
2023/06/02 10:13:57;;;;;;;4.80;2.30;;;;;;;;;;107245;289;43382;-35
2023/06/02 10:16:45;;;;;;;6.10;2.50;;;;;;;;;;107266;287;41910;-36
2023/06/02 10:19:54;;;;;;;6.40;2.30;;;;;;;;;;107247;289;38899;-35
2023/06/02 10:22:56;;;;;;;5.80;2.30;;;;;;;;;;107260;289;47004;-36
2023/06/02 10:25:47;;;;;;;5.60;2.20;;;;;;;;;;107311;288;42977;-36
2023/06/02 10:28:24;;;;;;;5.10;2.30;;;;;;;;;;107272;287;42147;-34
2023/06/02 10:31:12;;;;;;;5.20;2.20;;;;;;;;;;107019;290;38825;-34
2023/06/02 10:33:51;;;;;;;4.90;2.00;;;;;;;;;;107276;287;39675;-37
2023/06/02 10:36:27;;;;;;;4.80;2.10;;;;;;;;;;107281;289;43686;-36
2023/06/02 10:39:43;;;;;;;5.20;2.10;;;;;;;;;;107293;289;42282;-37
2023/06/02 10:42:20;;;;;;;6.10;2.00;;;;;;;;;;107252;289;40023;-36
2023/06/02 10:45:14;;;;;;;4.90;2.00;;;;;;;;;;107283;287;39560;-36
2023/06/02 10:47:48;;;;;;;4.50;1.90;;;;;;;;;;107187;285;175554;-35
2023/06/02 10:50:24;;;;;;;4.00;1.90;;;;;;;;;;107319;289;42688;-35
2023/06/02 10:53:13;;;;;;;4.70;1.80;;;;;;;;;;107294;286;44829;-35
2023/06/02 10:55:48;;;;;;;4.90;1.70;;;;;;;;;;107327;289;39880;-35
2023/06/02 10:58:23;;;;;;;4.70;1.70;;;;;;;;;;107148;287;175181;-36
2023/06/02 11:00:57;;;;;;;4.80;1.80;;;;;;;;;;107254;289;42258;-37
2023/06/02 11:03:36;;;;;;;4.10;1.80;;;;;;;;;;107266;289;46078;-37
2023/06/02 11:06:27;;;;;;;5.20;1.90;;;;;;;;;;107284;289;39711;-35
2023/06/02 11:09:34;;;;;;;4.40;1.80;;;;;;;;;;107251;289;42910;-35
2023/06/02 11:12:09;;;;;;;4.90;1.80;;;;;;;;;;107185;289;43179;-35
2023/06/02 11:15:20;;;;;;;3.70;1.60;;;;;;;;;;107271;287;38801;-36
2023/06/02 11:17:55;;;;;;;3.80;1.50;;;;;;;;;;107240;289;39708;-36
2023/06/02 11:20:37;;;;;;;4.90;1.50;;;;;;;;;;107253;288;42897;-35
2023/06/02 11:23:12;;;;;;;4.80;1.60;;;;;;;;;;107230;289;42195;-36
2023/06/02 11:25:47;;;;;;;3.80;1.80;;;;;;;;;;107298;289;39787;-36
2023/06/02 11:28:25;;;;;;;3.80;1.50;;;;;;;;;;107278;287;39749;-35
2023/06/02 11:31:11;;;;;;;4.00;1.50;;;;;;;;;;107299;287;43005;-35
2023/06/02 11:33:48;;;;;;;4.10;1.70;;;;;;;;;;107280;287;42270;-35
2023/06/02 11:36:30;;;;;;;4.30;1.60;;;;;;;;;;107274;288;39034;-35
2023/06/02 11:39:09;;;;;;;4.20;1.50;;;;;;;;;;107315;287;40031;-35
2023/06/02 11:41:57;;;;;;;4.30;1.50;;;;;;;;;;107273;289;42961;-35
2023/06/02 11:44:31;;;;;;;4.30;1.60;;;;;;;;;;107284;287;47754;-35
2023/06/02 11:47:05;;;;;;;5.00;1.50;;;;;;;;;;106615;287;910037;-35
2023/06/02 11:49:43;;;;;;;4.40;1.50;;;;;;;;;;107266;289;39519;-36
2023/06/02 11:52:17;;;;;;;4.60;1.50;;;;;;;;;;107282;287;42925;-37
2023/06/02 11:54:56;;;;;;;4.30;1.40;;;;;;;;;;107344;287;48707;-37
2023/06/02 11:57:35;;;;;;;3.70;1.40;;;;;;;;;;107127;286;40802;-37
2023/06/02 12:00:19;;;;;;;3.70;1.40;;;;;;;;;;107260;288;39852;-36
2023/06/02 12:03:07;;;;;;;4.20;1.70;;;;;;;;;;107226;287;43282;-36
2023/06/02 12:05:43;;;;;;;5.00;1.50;;;;;;;;;;107245;286;43322;-37
2023/06/02 12:08:24;;;;;;;2.60;1.10;;;;;;;;;;107269;281;38552;-36
2023/06/02 12:10:57;;;;;;;4.20;1.60;;;;;;;;;;107284;288;39751;-36
2023/06/02 12:13:34;;;;;;;3.00;1.20;;;;;;;;;;107198;281;42899;-36
2023/06/02 12:16:24;;;;;;;3.50;1.40;;;;;;;;;;107243;289;42321;-36
2023/06/02 12:19:14;;;;;;;4.30;1.50;;;;;;;;;;107247;288;39966;-36
2023/06/02 12:21:50;;;;;;;3.40;1.30;;;;;;;;;;107228;289;39762;-37
2023/06/02 12:24:37;;;;;;;4.50;1.40;;;;;;;;;;107202;288;42951;-36
2023/06/02 12:27:15;;;;;;;3.30;1.50;;;;;;;;;;107257;288;42061;-37
2023/06/02 12:29:52;;;;;;;3.50;1.50;;;;;;;;;;107249;289;40200;-35
2023/06/02 12:32:30;;;;;;;4.80;1.50;;;;;;;;;;107275;288;39543;-37
2023/06/02 12:35:05;;;;;;;3.20;1.30;;;;;;;;;;107239;288;42896;-37
2023/06/02 12:37:43;;;;;;;3.70;1.50;;;;;;;;;;107265;287;41918;-34
2023/06/02 12:40:18;;;;;;;2.80;1.20;;;;;;;;;;107276;287;38828;-35
2023/06/02 12:42:52;;;;;;;3.30;1.40;;;;;;;;;;107273;287;39449;-35
2023/06/02 12:45:25;;;;;;;4.20;1.40;;;;;;;;;;107206;289;44157;-35
2023/06/02 12:47:59;;;;;;;3.50;1.40;;;;;;;;;;107248;289;42167;-35
2023/06/02 12:50:32;;;;;;;4.20;1.40;;;;;;;;;;107266;289;39167;-37
2023/06/02 12:53:06;;;;;;;3.40;1.40;;;;;;;;;;106610;289;894326;-36
2023/06/02 12:55:39;;;;;;;3.70;1.40;;;;;;;;;;107223;288;43998;-36
2023/06/02 12:58:13;;;;;;;3.50;1.50;;;;;;;;;;107269;286;42127;-35
2023/06/02 13:00:48;;;;;;;4.10;1.20;;;;;;;;;;107278;289;38756;-38
2023/06/02 13:03:22;;;;;;;3.20;1.30;;;;;;;;;;107257;288;39801;-37
2023/06/02 13:06:02;;;;;;;3.20;1.30;;;;;;;;;;107197;287;42939;-37
2023/06/02 13:08:38;;;;;;;3.40;1.30;;;;;;;;;;107269;289;42132;-37
2023/06/02 13:11:11;;;;;;;3.80;1.40;;;;;;;;;;107254;289;39961;-36
2023/06/02 13:13:47;;;;;;;4.30;1.60;;;;;;;;;;107212;289;41889;-35
2023/06/02 13:16:22;;;;;;;3.70;1.30;;;;;;;;;;106986;290;43125;-37
2023/06/02 13:18:56;;;;;;;4.40;1.20;;;;;;;;;;107221;287;42357;-35
2023/06/02 13:21:29;;;;;;;2.90;1.20;;;;;;;;;;107273;287;39843;-36
2023/06/02 13:24:05;;;;;;;4.30;1.60;;;;;;;;;;107248;289;41144;-36
2023/06/02 13:26:39;;;;;;;4.70;1.50;;;;;;;;;;107211;287;43053;-35
2023/06/02 13:29:12;;;;;;;4.60;1.60;;;;;;;;;;107270;289;42526;-35
2023/06/02 13:31:46;;;;;;;3.60;1.30;;;;;;;;;;107273;287;38913;-35
2023/06/02 13:34:20;;;;;;;4.90;1.70;;;;;;;;;;107307;288;39721;-36
2023/06/02 13:36:55;;;;;;;3.60;1.50;;;;;;;;;;107276;288;48866;-36
2023/06/02 13:39:29;;;;;;;4.20;1.40;;;;;;;;;;107252;288;42265;-35
2023/06/02 13:42:07;;;;;;;4.10;1.50;;;;;;;;;;107327;286;38932;-35
2023/06/02 13:44:41;;;;;;;4.30;1.40;;;;;;;;;;107277;288;39653;-35
2023/06/02 13:47:14;;;;;;;4.10;1.40;;;;;;;;;;107315;288;43116;-35
2023/06/02 13:49:51;;;;;;;4.80;1.50;;;;;;;;;;107300;287;42100;-35
2023/06/02 13:52:26;;;;;;;4.00;1.40;;;;;;;;;;107318;288;38778;-35
2023/06/02 13:55:01;;;;;;;4.40;1.60;;;;;;;;;;107270;288;39764;-35
2023/06/02 13:57:36;;;;;;;4.10;1.50;;;;;;;;;;107304;286;49378;-35
2023/06/02 14:00:15;;;;;;;4.20;1.30;;;;;;;;;;107335;287;42240;-35
2023/06/02 14:02:49;;;;;;;3.90;1.40;;;;;;;;;;107202;286;175101;-35
2023/06/02 14:05:24;;;;;;;5.40;1.60;;;;;;;;;;107295;288;40366;-35
2023/06/02 14:07:59;;;;;;;4.40;1.40;;;;;;;;;;107274;286;42900;-35
2023/06/02 14:10:33;;;;;;;4.40;1.40;;;;;;;;;;107295;288;42140;-35
2023/06/02 14:13:09;;;;;;;4.40;1.40;;;;;;;;;;107299;289;38791;-35
2023/06/02 14:15:46;;;;;;;3.90;1.40;;;;;;;;;;107214;288;40827;-34
2023/06/02 14:18:24;;;;;;;3.70;1.30;;;;;;;;;;107325;288;43034;-35
2023/06/02 14:20:58;;;;;;;3.30;1.20;;;;;;;;;;107323;287;43627;-36
2023/06/02 14:23:34;;;;;;;3.30;1.20;;;;;;;;;;107298;288;39059;-36
2023/06/02 14:26:09;;;;;;;3.00;1.30;;;;;;;;;;107287;286;39747;-35
2023/06/02 14:28:44;;;;;;;3.60;1.30;;;;;;;;;;107312;288;44118;-35
2023/06/02 14:31:19;;;;;;;4.20;1.20;;;;;;;;;;107321;288;42155;-35
2023/06/02 14:33:55;;;;;;;4.60;1.50;;;;;;;;;;106543;288;895033;-35
2023/06/02 14:36:29;;;;;;;5.10;1.40;;;;;;;;;;107276;288;39773;-35
2023/06/02 14:39:03;;;;;;;3.90;1.50;;;;;;;;;;107307;288;43002;-35
2023/06/02 14:41:37;;;;;;;3.70;1.40;;;;;;;;;;107347;287;42327;-36
2023/06/02 14:44:12;;;;;;;4.30;1.40;;;;;;;;;;107286;287;39855;-35
2023/06/02 14:46:46;;;;;;;4.60;1.40;;;;;;;;;;107232;289;39751;-35
2023/06/02 14:49:21;;;;;;;4.50;1.40;;;;;;;;;;107267;289;42953;-35
2023/06/02 14:51:55;;;;;;;5.10;1.90;;;;;;;;;;107242;290;43341;-35
2023/06/02 14:54:28;;;;;;;5.00;1.90;;;;;;;;;;107241;285;38802;-35
2023/06/02 14:57:04;;;;;;;5.50;1.90;;;;;;;;;;107068;281;192786;-35
2023/06/02 14:59:38;;;;;;;5.10;1.90;;;;;;;;;;107276;289;42954;-35
2023/06/02 15:02:11;;;;;;;5.00;1.80;;;;;;;;;;107247;289;43265;-35
2023/06/02 15:04:50;;;;;;;5.40;1.90;;;;;;;;;;107264;289;38840;-35
2023/06/02 15:07:23;;;;;;;4.70;1.70;;;;;;;;;;107244;289;39794;-35
2023/06/02 15:09:57;;;;;;;4.20;1.80;;;;;;;;;;107237;287;42921;-36
2023/06/02 15:12:33;;;;;;;4.40;1.80;;;;;;;;;;107272;287;42180;-36
2023/06/02 15:15:09;;;;;;;5.30;2.10;;;;;;;;;;107303;289;38867;-36
2023/06/02 15:17:43;;;;;;;5.40;2.00;;;;;;;;;;107254;289;40772;-36
2023/06/02 15:20:17;;;;;;;5.00;2.00;;;;;;;;;;107235;289;42964;-36
2023/06/02 15:22:52;;;;;;;5.10;1.80;;;;;;;;;;107136;287;175470;-36
2023/06/02 15:25:25;;;;;;;4.40;1.90;;;;;;;;;;107233;288;38909;-36
2023/06/02 15:27:58;;;;;;;4.20;1.60;;;;;;;;;;107227;286;40958;-36
2023/06/02 15:30:34;;;;;;;5.20;1.90;;;;;;;;;;107244;287;43202;-36
2023/06/02 15:33:11;;;;;;;4.50;1.80;;;;;;;;;;107251;289;42182;-36
2023/06/02 15:35:46;;;;;;;4.40;1.90;;;;;;;;;;107249;289;38766;-36
2023/06/02 15:38:22;;;;;;;4.70;1.70;;;;;;;;;;107224;289;40817;-36
2023/06/02 15:40:57;;;;;;;4.00;1.40;;;;;;;;;;107259;287;42923;-36